createdAt,value
2019-05-25T00:00:13.069Z,55.2
2019-05-25T00:05:00.183Z,47.6
2019-05-25T00:09:48.481Z,49.9
2019-05-25T00:14:36.084Z,53.4
2019-05-25T00:19:25.568Z,54.6
2019-05-25T00:24:13.128Z,56.9
2019-05-25T00:29:00.770Z,59.4
2019-05-25T00:33:47.675Z,62
2019-05-25T00:38:35.020Z,64.4
2019-05-25T00:43:24.244Z,62.4
2019-05-25T00:48:11.570Z,63.4
2019-05-25T00:52:58.674Z,65
2019-05-25T00:57:45.622Z,66.2
2019-05-25T01:02:32.667Z,67.2
2019-05-25T01:06:33.272Z,67.3
2019-05-25T01:06:48.825Z,66.1
2019-05-25T01:07:04.362Z,65.1
2019-05-25T01:08:06.104Z,57.4
2019-05-25T01:12:53.059Z,49.3
2019-05-25T01:17:40.730Z,50.5
2019-05-25T01:22:27.436Z,53.4
2019-05-25T01:27:15.021Z,55.2
2019-05-25T01:32:02.253Z,58.8
2019-05-25T01:36:49.038Z,59.4
2019-05-25T01:41:38.241Z,61.9
2019-05-25T01:46:25.489Z,62.4
2019-05-25T01:51:12.622Z,63.8
2019-05-25T01:56:00.306Z,64.8
2019-05-25T02:00:48.159Z,65.2
2019-05-25T02:05:35.254Z,66.4
2019-05-25T02:09:36.753Z,70.6
2019-05-25T02:09:53.141Z,67.8
2019-05-25T02:10:09.330Z,66.4
2019-05-25T02:10:24.961Z,66.4
2019-05-25T02:10:40.545Z,65.3
2019-05-25T02:11:42.788Z,55.8
2019-05-25T02:16:30.236Z,48.1
2019-05-25T02:21:19.405Z,50.3
2019-05-25T02:26:06.497Z,53.1
2019-05-25T02:30:54.493Z,57.6
2019-05-25T02:35:41.886Z,59.9
2019-05-25T02:40:29.800Z,63.4
2019-05-25T02:45:16.914Z,65.6
2019-05-25T02:50:04.025Z,66.5
2019-05-25T02:54:04.609Z,67.3
2019-05-25T02:54:20.149Z,67.1
2019-05-25T02:54:35.699Z,65.8
2019-05-25T02:55:37.629Z,57.1
2019-05-25T03:00:24.525Z,50.4
2019-05-25T03:05:11.539Z,52.7
2019-05-25T03:09:58.553Z,56
2019-05-25T03:14:46.020Z,60.4
2019-05-25T03:19:32.819Z,62
2019-05-25T03:24:19.629Z,67.2
2019-05-25T03:28:20.240Z,68.2
2019-05-25T03:28:36.091Z,67.1
2019-05-25T03:28:52.260Z,67.1
2019-05-25T03:29:08.409Z,64.6
2019-05-25T03:30:13.050Z,58.5
2019-05-25T03:35:00.007Z,50.7
2019-05-25T03:39:47.030Z,52.6
2019-05-25T03:44:36.729Z,56.3
2019-05-25T03:49:24.101Z,60.1
2019-05-25T03:54:11.841Z,62.4
2019-05-25T03:58:58.740Z,66
2019-05-25T04:02:59.326Z,68.6
2019-05-25T04:03:14.861Z,69.7
2019-05-25T04:03:30.477Z,70.5
2019-05-25T04:03:46.040Z,71.1
2019-05-25T04:04:01.611Z,71
2019-05-25T04:04:17.160Z,68.9
2019-05-25T04:04:32.787Z,68.8
2019-05-25T04:04:48.345Z,68.3
2019-05-25T04:05:03.895Z,67.6
2019-05-25T04:05:19.447Z,65.4
2019-05-25T04:06:21.138Z,58.6
2019-05-25T04:11:08.158Z,51
2019-05-25T04:15:55.102Z,53.9
2019-05-25T04:20:42.507Z,58
2019-05-25T04:25:30.413Z,62.3
2019-05-25T04:30:17.533Z,66.2
2019-05-25T04:34:18.205Z,70.6
2019-05-25T04:34:33.742Z,69.5
2019-05-25T04:34:49.268Z,69.7
2019-05-25T04:35:04.855Z,69.7
2019-05-25T04:35:20.530Z,69.7
2019-05-25T04:35:36.103Z,69
2019-05-25T04:35:51.645Z,65.7
2019-05-25T04:36:07.169Z,65.2
2019-05-25T04:37:09.931Z,61.6
2019-05-25T04:41:57.512Z,53
2019-05-25T04:46:44.397Z,55.5
2019-05-25T04:51:31.654Z,59.6
2019-05-25T04:56:18.653Z,64.5
2019-05-25T05:01:05.959Z,67.7
2019-05-25T05:05:06.694Z,65.7
2019-05-25T05:06:08.941Z,59.3
2019-05-25T05:10:57.490Z,52.1
2019-05-25T05:15:44.891Z,54.8
2019-05-25T05:20:32.828Z,58.6
2019-05-25T05:25:20.139Z,62.4
2019-05-25T05:30:07.024Z,65
2019-05-25T05:34:53.767Z,67.9
2019-05-25T05:38:54.357Z,66.3
2019-05-25T05:39:09.916Z,66.2
2019-05-25T05:39:25.471Z,65.4
2019-05-25T05:40:27.616Z,57.5
2019-05-25T05:45:14.797Z,50.3
2019-05-25T05:50:01.719Z,52.8
2019-05-25T05:54:48.834Z,55.9
2019-05-25T05:59:36.059Z,59.4
2019-05-25T06:04:22.809Z,62.9
2019-05-25T06:09:10.557Z,64.9
2019-05-25T06:13:11.077Z,68.2
2019-05-25T06:13:26.668Z,68.1
2019-05-25T06:13:42.310Z,67.9
2019-05-25T06:13:57.907Z,67.2
2019-05-25T06:14:59.821Z,60.3
2019-05-25T06:19:46.584Z,52.6
2019-05-25T06:24:35.450Z,55.2
2019-05-25T06:29:22.745Z,57.7
2019-05-25T06:34:10.781Z,60.4
2019-05-25T06:38:57.761Z,63.8
2019-05-25T06:43:45.084Z,65.6
2019-05-25T06:47:45.720Z,66.3
2019-05-25T06:48:47.662Z,58.7
2019-05-25T06:53:34.606Z,51.4
2019-05-25T06:58:21.436Z,52.6
2019-05-25T07:03:08.674Z,56
2019-05-25T07:07:55.895Z,60.9
2019-05-25T07:12:42.973Z,61.3
2019-05-25T07:17:30.233Z,64.1
2019-05-25T07:22:16.972Z,65
2019-05-25T07:27:04.186Z,65.6
2019-05-25T07:31:51.454Z,57.7
2019-05-25T07:36:38.348Z,53.7
2019-05-25T07:41:25.321Z,55.3
2019-05-25T07:46:12.246Z,58.2
2019-05-25T07:50:59.121Z,59.2
2019-05-25T07:55:46.131Z,59.9
2019-05-25T08:00:33.294Z,61.9
2019-05-25T08:05:22.261Z,62.6
2019-05-25T08:10:09.552Z,62.4
2019-05-25T08:14:56.368Z,64.7
2019-05-25T08:19:43.909Z,63
2019-05-25T08:24:31.685Z,63.3
2019-05-25T08:29:18.610Z,61.5
2019-05-25T08:34:06.502Z,58.4
2019-05-25T08:38:54.872Z,59.2
2019-05-25T08:43:42.015Z,60.4
2019-05-25T08:48:29.922Z,59.8
2019-05-25T08:53:17.101Z,58.2
2019-05-25T08:58:04.197Z,58
2019-05-25T09:02:51.769Z,61.4
2019-05-25T09:07:38.924Z,59.4
2019-05-25T09:12:26.813Z,56.9
2019-05-25T09:17:14.125Z,57.8
2019-05-25T09:22:02.905Z,56.6
2019-05-25T09:26:51.268Z,55.5
2019-05-25T09:31:38.890Z,53.6
2019-05-25T09:36:26.054Z,53.2
2019-05-25T09:41:12.958Z,52.2
2019-05-25T09:46:03.226Z,52.1
2019-05-25T09:50:50.513Z,53.3
2019-05-25T09:55:37.480Z,51
2019-05-25T10:00:24.819Z,50.3
2019-05-25T10:05:11.761Z,50.4
2019-05-25T10:10:00.066Z,51.7
2019-05-25T10:14:49.399Z,52.8
2019-05-25T10:19:37.828Z,50.7
2019-05-25T10:24:27.127Z,51.7
2019-05-25T10:29:14.478Z,51.4
2019-05-25T10:34:01.677Z,51.6
2019-05-25T10:38:48.903Z,49.3
2019-05-25T10:43:36.279Z,48.5
2019-05-25T10:48:23.590Z,47.3
2019-05-25T10:53:10.901Z,46.3
2019-05-25T10:57:57.768Z,48.1
2019-05-25T11:02:47.039Z,47.1
2019-05-25T11:07:35.160Z,46.8
2019-05-25T11:12:26.028Z,45.9
2019-05-25T11:17:13.598Z,47.1
2019-05-25T11:22:01.352Z,46.2
2019-05-25T11:26:49.150Z,47.1
2019-05-25T11:31:36.658Z,48.8
2019-05-25T11:36:23.657Z,48.2
2019-05-25T11:41:10.877Z,47.1
2019-05-25T11:45:58.304Z,46.2
2019-05-25T11:50:45.504Z,45.8
2019-05-25T11:55:32.623Z,44.3
2019-05-25T12:00:24.936Z,45.2
2019-05-25T12:05:13.683Z,44.9
2019-05-25T12:10:01.608Z,46.7
2019-05-25T12:14:49.220Z,44.5
2019-05-25T12:19:37.909Z,42.3
2019-05-25T12:24:27.465Z,45.1
2019-05-25T12:29:14.548Z,43.2
2019-05-25T12:34:01.848Z,42.3
2019-05-25T12:38:49.453Z,42.1
2019-05-25T12:43:36.528Z,41.7
2019-05-25T12:48:24.475Z,43.2
2019-05-25T12:53:11.739Z,43
2019-05-25T12:57:58.870Z,42.5
2019-05-25T13:02:45.682Z,43
2019-05-25T13:07:32.607Z,41.6
2019-05-25T13:12:20.126Z,41.1
2019-05-25T13:17:07.385Z,42.9
2019-05-25T13:21:54.645Z,45.7
2019-05-25T13:26:42.066Z,40.9
2019-05-25T13:31:30.308Z,39.6
2019-05-25T13:36:17.712Z,38.8
2019-05-25T13:41:04.974Z,38.9
2019-05-25T13:45:51.899Z,37.8
2019-05-25T13:50:38.802Z,37.8
2019-05-25T13:55:26.493Z,37.2
2019-05-25T14:00:13.999Z,38.4
2019-05-25T14:05:00.794Z,37.9
2019-05-25T14:09:48.021Z,36.4
2019-05-25T14:14:34.860Z,40.4
2019-05-25T14:19:21.610Z,36.8
2019-05-25T14:24:08.821Z,38.1
2019-05-25T14:28:56.547Z,36.6
2019-05-25T14:33:43.933Z,39
2019-05-25T14:38:31.227Z,38.4
2019-05-25T14:43:18.627Z,39.4
2019-05-25T14:48:06.495Z,40.5
2019-05-25T14:52:53.671Z,43.2
2019-05-25T14:57:40.987Z,42.5
2019-05-25T15:02:28.983Z,40.7
2019-05-25T15:07:16.505Z,40.5
2019-05-25T15:12:03.675Z,39.4
2019-05-25T15:16:52.075Z,39.8
2019-05-25T15:21:39.310Z,41.6
2019-05-25T15:26:27.186Z,38.1
2019-05-25T15:31:14.829Z,37.3
2019-05-25T15:36:03.501Z,35.9
2019-05-25T15:40:51.097Z,36.7
2019-05-25T15:45:37.976Z,37
2019-05-25T15:50:25.020Z,37.2
2019-05-25T15:55:12.730Z,38.2
2019-05-25T15:59:59.942Z,39.1
2019-05-25T16:04:48.410Z,41.9
2019-05-25T16:09:35.481Z,42.7
2019-05-25T16:14:23.590Z,44
2019-05-25T16:19:12.753Z,46.4
2019-05-25T16:23:59.862Z,46.4
2019-05-25T16:28:47.506Z,46.3
2019-05-25T16:33:34.715Z,45.2
2019-05-25T16:38:21.762Z,46
2019-05-25T16:43:08.624Z,46.4
2019-05-25T16:47:56.522Z,47.6
2019-05-25T16:52:43.634Z,49.5
2019-05-25T16:57:30.934Z,49.2
2019-05-25T17:02:17.878Z,50.6
2019-05-25T17:07:05.933Z,50.3
2019-05-25T17:11:53.272Z,50.8
2019-05-25T17:16:41.116Z,51.7
2019-05-25T17:21:28.085Z,50.8
2019-05-25T17:26:16.459Z,50.8
2019-05-25T17:31:03.915Z,51.2
2019-05-25T17:35:51.755Z,50.5
2019-05-25T17:40:38.874Z,50.3
2019-05-25T17:45:26.866Z,50.5
2019-05-25T17:50:14.316Z,52.1
2019-05-25T17:55:01.258Z,52.6
2019-05-25T17:59:48.428Z,52.4
2019-05-25T18:04:35.752Z,53.3
2019-05-25T18:09:22.679Z,54.2
2019-05-25T18:14:09.654Z,54.6
2019-05-25T18:18:57.261Z,55.1
2019-05-25T18:23:44.982Z,56.2
2019-05-25T18:28:31.745Z,55.4
2019-05-25T18:33:19.090Z,56
2019-05-25T18:38:06.012Z,56.9
2019-05-25T18:42:55.768Z,56.7
2019-05-25T18:47:43.183Z,57.7
2019-05-25T18:52:29.971Z,56.8
2019-05-25T18:57:17.900Z,57.8
2019-05-25T19:02:06.113Z,58.7
2019-05-25T19:06:53.085Z,59.1
2019-05-25T19:11:40.552Z,59.8
2019-05-25T19:16:27.402Z,60.5
2019-05-25T19:21:14.382Z,60.2
2019-05-25T19:26:01.474Z,61
2019-05-25T19:30:48.393Z,61.9
2019-05-25T19:35:37.471Z,63.4
2019-05-25T19:40:24.633Z,63.1
2019-05-25T19:45:12.502Z,62.7
2019-05-25T19:50:04.668Z,62.5
2019-05-25T19:54:52.858Z,63.7
2019-05-25T19:59:39.696Z,65
2019-05-25T20:04:26.453Z,66.5
2019-05-25T20:08:27.016Z,68.8
2019-05-25T20:08:42.568Z,67.6
2019-05-25T20:08:58.243Z,66.6
2019-05-25T20:09:13.899Z,65.3
2019-05-25T20:10:16.047Z,56.2
2019-05-25T20:15:05.549Z,49
2019-05-25T20:19:52.990Z,50.1
2019-05-25T20:24:40.170Z,53.5
2019-05-25T20:29:27.984Z,56.3
2019-05-25T20:34:15.521Z,59
2019-05-25T20:39:03.147Z,62.4
2019-05-25T20:43:50.472Z,63.3
2019-05-25T20:48:37.386Z,65.5
2019-05-25T20:52:38.072Z,67.1
2019-05-25T20:52:53.649Z,68
2019-05-25T20:53:09.203Z,68.9
2019-05-25T20:53:24.749Z,69.6
2019-05-25T20:53:40.478Z,70.1
2019-05-25T20:53:56.045Z,70.2
2019-05-25T20:54:11.594Z,70.1
2019-05-25T20:54:27.137Z,69.9
2019-05-25T20:54:42.690Z,69.6
2019-05-25T20:54:59.370Z,69.6
2019-05-25T20:55:14.919Z,67.9
2019-05-25T20:55:30.458Z,67.7
2019-05-25T20:55:46.000Z,66.5
2019-05-25T20:56:01.531Z,65.3
2019-05-25T20:57:03.934Z,57
2019-05-25T21:01:50.921Z,50
2019-05-25T21:06:37.702Z,52.2
2019-05-25T21:11:24.982Z,54.7
2019-05-25T21:16:12.149Z,58.5
2019-05-25T21:21:00.074Z,60.4
2019-05-25T21:25:47.522Z,64.1
2019-05-25T21:30:34.400Z,66.6
2019-05-25T21:34:35.050Z,67.6
2019-05-25T21:34:50.596Z,67.6
2019-05-25T21:35:06.144Z,67.4
2019-05-25T21:35:21.680Z,66.1
2019-05-25T21:36:23.973Z,58.1
2019-05-25T21:41:10.898Z,50.7
2019-05-25T21:45:57.800Z,53.4
2019-05-25T21:50:45.407Z,57
2019-05-25T21:55:34.413Z,60.5
2019-05-25T22:00:23.365Z,63.5
2019-05-25T22:05:10.657Z,67.2
2019-05-25T22:09:11.398Z,67.2
2019-05-25T22:09:27.181Z,66.9
2019-05-25T22:09:43.250Z,65.7
2019-05-25T22:09:59.381Z,65.7
2019-05-25T22:11:03.802Z,57.8
2019-05-25T22:15:51.243Z,49.8
2019-05-25T22:20:38.098Z,53
2019-05-25T22:25:25.405Z,57.1
2019-05-25T22:30:12.218Z,60.6
2019-05-25T22:34:58.986Z,64.6
2019-05-25T22:39:45.999Z,67.2
2019-05-25T22:43:47.662Z,68.3
2019-05-25T22:44:03.875Z,68.3
2019-05-25T22:44:19.896Z,65.7
2019-05-25T22:44:35.458Z,64.2
2019-05-25T22:45:39.740Z,55.7
2019-05-25T22:50:27.092Z,49.8
2019-05-25T22:55:14.529Z,53.2
2019-05-25T23:00:01.773Z,56.7
2019-05-25T23:04:48.948Z,60.9
2019-05-25T23:09:36.726Z,64.2
2019-05-25T23:13:37.284Z,65.4
2019-05-25T23:13:52.816Z,66.2
2019-05-25T23:14:09.984Z,67.3
2019-05-25T23:14:25.727Z,68.7
2019-05-25T23:14:41.272Z,71.1
2019-05-25T23:14:56.956Z,71.3
2019-05-25T23:15:12.505Z,72
2019-05-25T23:15:28.130Z,72.5
2019-05-25T23:15:43.686Z,72.5
2019-05-25T23:15:59.256Z,72.3
2019-05-25T23:16:14.803Z,71.9
2019-05-25T23:16:30.354Z,71.9
2019-05-25T23:16:45.977Z,71
2019-05-25T23:17:01.548Z,69.8
2019-05-25T23:17:17.112Z,68.6
2019-05-25T23:17:32.660Z,67.5
2019-05-25T23:18:34.853Z,58.1
2019-05-25T23:23:22.478Z,50.9
2019-05-25T23:28:09.600Z,53.5
2019-05-25T23:32:57.286Z,58.5
2019-05-25T23:37:45.036Z,63.1
2019-05-25T23:42:31.976Z,67.2
2019-05-25T23:46:32.550Z,69.1
2019-05-25T23:46:48.099Z,68
2019-05-25T23:47:03.642Z,66.8
2019-05-25T23:48:05.593Z,58.4
2019-05-25T23:52:53.271Z,51.6
2019-05-25T23:57:40.293Z,54.5
